createdAt,value
2022-11-18T00:03:10.014Z,8.26
2022-11-18T00:07:11.325Z,8.23
2022-11-18T00:11:33.985Z,8.23
2022-11-18T00:15:35.287Z,8.24
2022-11-18T00:19:37.824Z,8.27
2022-11-18T00:23:39.473Z,8.31
2022-11-18T00:27:40.762Z,8.36
2022-11-18T00:31:42.231Z,8.40
2022-11-18T00:35:43.539Z,8.44
2022-11-18T00:39:44.771Z,8.45
2022-11-18T00:43:46.098Z,8.44
2022-11-18T00:47:47.371Z,8.48
2022-11-18T00:51:49.018Z,8.53
2022-11-18T00:55:50.771Z,8.55
2022-11-18T00:59:52.062Z,8.60
2022-11-18T01:03:53.392Z,8.62
2022-11-18T01:07:54.690Z,8.62
2022-11-18T01:12:14.789Z,8.61
2022-11-18T01:16:20.220Z,8.58
2022-11-18T01:20:21.511Z,8.60
2022-11-18T01:24:22.856Z,8.59
2022-11-18T01:28:24.387Z,8.57
2022-11-18T01:32:25.988Z,8.58
2022-11-18T01:36:28.325Z,8.60
2022-11-18T01:40:30.083Z,8.62
2022-11-18T01:44:50.077Z,8.62
2022-11-18T01:48:53.935Z,8.60
2022-11-18T01:52:58.486Z,8.57
2022-11-18T01:57:02.159Z,8.58
2022-11-18T02:01:06.877Z,8.63
2022-11-18T02:05:10.621Z,8.65
2022-11-18T02:09:13.769Z,8.61
2022-11-18T02:13:15.529Z,8.59
2022-11-18T02:17:16.778Z,8.57
2022-11-18T02:21:24.128Z,8.53
2022-11-18T02:25:37.720Z,8.50
2022-11-18T02:29:44.147Z,8.44
2022-11-18T02:34:05.714Z,8.45
2022-11-18T02:38:09.710Z,8.39
2022-11-18T02:42:12.700Z,8.38
2022-11-18T02:46:16.932Z,8.37
2022-11-18T02:50:21.071Z,8.32
2022-11-18T02:54:24.051Z,8.32
2022-11-18T02:58:25.803Z,8.28
2022-11-18T03:02:27.297Z,8.30
2022-11-18T03:06:34.076Z,8.29
2022-11-18T03:10:52.487Z,8.34
2022-11-18T03:15:13.995Z,8.33
2022-11-18T03:19:22.148Z,8.26
2022-11-18T03:23:32.487Z,8.28
2022-11-18T03:27:41.919Z,8.23
2022-11-18T03:31:43.168Z,8.14
2022-11-18T03:35:46.703Z,8.10
2022-11-18T03:39:53.673Z,8.09
2022-11-18T03:44:01.679Z,8.11
2022-11-18T03:48:11.319Z,8.09
2022-11-18T03:52:18.326Z,8.15
2022-11-18T03:56:21.917Z,8.17
2022-11-18T04:00:24.067Z,8.22
2022-11-18T04:04:26.534Z,8.23
2022-11-18T04:08:30.742Z,8.27
2022-11-18T04:12:35.790Z,8.27
2022-11-18T04:16:43.875Z,8.28
2022-11-18T04:20:45.515Z,8.31
2022-11-18T04:24:47.013Z,8.30
2022-11-18T04:28:48.265Z,8.29
2022-11-18T04:32:49.576Z,8.34
2022-11-18T04:36:50.866Z,8.35
2022-11-18T04:40:52.919Z,8.29
2022-11-18T04:44:54.228Z,8.33
2022-11-18T04:48:55.567Z,8.35
2022-11-18T04:52:56.845Z,8.36
2022-11-18T04:56:58.217Z,8.35
2022-11-18T05:00:59.508Z,8.39
2022-11-18T05:05:00.888Z,8.37
2022-11-18T05:09:02.382Z,8.40
2022-11-18T05:13:03.684Z,8.41
2022-11-18T05:17:06.036Z,8.41
2022-11-18T05:21:07.555Z,8.43
2022-11-18T05:25:09.287Z,8.42
2022-11-18T05:29:10.856Z,8.44
2022-11-18T05:33:12.100Z,8.45
2022-11-18T05:37:13.718Z,8.45
2022-11-18T05:41:35.475Z,8.45
2022-11-18T05:45:37.010Z,8.48
2022-11-18T05:49:38.288Z,8.50
2022-11-18T05:53:39.966Z,8.52
2022-11-18T05:57:41.310Z,8.50
2022-11-18T06:01:45.259Z,8.49
2022-11-18T06:05:46.851Z,8.49
2022-11-18T06:09:51.246Z,8.50
2022-11-18T06:13:57.403Z,8.50
2022-11-18T06:18:07.474Z,8.50
2022-11-18T06:22:09.727Z,8.52
2022-11-18T06:26:12.214Z,8.55
2022-11-18T06:30:13.786Z,8.58
2022-11-18T06:34:15.096Z,8.60
2022-11-18T06:38:16.387Z,8.61
2022-11-18T06:42:36.448Z,8.63
2022-11-18T06:46:55.763Z,8.64
2022-11-18T06:50:57.241Z,8.66
2022-11-18T06:54:58.538Z,8.67
2022-11-18T06:58:59.919Z,8.70
2022-11-18T07:03:02.152Z,8.69
2022-11-18T07:07:03.503Z,8.68
2022-11-18T07:11:05.778Z,8.72
2022-11-18T07:15:07.418Z,8.74
2022-11-18T07:19:13.066Z,8.76
2022-11-18T07:23:14.392Z,8.77
2022-11-18T07:27:15.658Z,8.79
2022-11-18T07:31:18.556Z,8.80
2022-11-18T07:35:19.923Z,8.81
2022-11-18T07:39:21.363Z,8.82
2022-11-18T07:43:22.779Z,8.87
2022-11-18T07:47:24.143Z,8.87
2022-11-18T07:51:27.208Z,8.90
2022-11-18T07:55:32.147Z,8.93
2022-11-18T07:59:33.712Z,8.97
2022-11-18T08:03:35.167Z,9.03
2022-11-18T08:07:36.503Z,9.11
2022-11-18T08:11:37.886Z,9.20
2022-11-18T08:15:42.882Z,9.24
2022-11-18T08:19:44.543Z,9.21
2022-11-18T08:23:49.760Z,9.20
2022-11-18T08:27:51.062Z,9.21
2022-11-18T08:31:52.416Z,9.22
2022-11-18T08:35:53.947Z,9.20
2022-11-18T08:39:55.236Z,9.18
2022-11-18T08:43:56.519Z,9.11
2022-11-18T08:47:57.790Z,9.11
2022-11-18T08:51:59.207Z,9.14
2022-11-18T08:56:00.923Z,9.15
2022-11-18T09:00:04.341Z,9.24
2022-11-18T09:04:05.611Z,9.33
2022-11-18T09:08:06.868Z,9.47
2022-11-18T09:12:09.136Z,9.57
2022-11-18T09:16:10.567Z,9.82
2022-11-18T09:20:11.932Z,10.17
2022-11-18T09:24:13.246Z,10.42
2022-11-18T09:28:14.795Z,10.54
2022-11-18T09:32:16.249Z,10.46
2022-11-18T09:36:19.320Z,10.44
2022-11-18T09:40:20.868Z,10.77
2022-11-18T09:44:30.544Z,10.84
2022-11-18T09:48:54.706Z,10.76
2022-11-18T09:53:02.268Z,10.56
2022-11-18T09:57:10.430Z,10.53
2022-11-18T10:01:14.022Z,10.55
2022-11-18T10:05:21.320Z,10.59
2022-11-18T10:09:26.658Z,10.57
2022-11-18T10:13:27.967Z,10.59
2022-11-18T10:17:38.344Z,10.79
2022-11-18T10:21:43.293Z,10.80
2022-11-18T10:25:44.604Z,10.73
2022-11-18T10:29:48.760Z,10.71
2022-11-18T10:33:57.911Z,10.68
2022-11-18T10:38:07.718Z,10.65
2022-11-18T10:42:18.172Z,10.68
2022-11-18T10:46:30.712Z,10.67
2022-11-18T10:50:36.468Z,10.74
2022-11-18T10:54:38.006Z,10.86
2022-11-18T10:58:43.853Z,10.90
2022-11-18T11:02:45.336Z,10.92
2022-11-18T11:06:46.676Z,11.01
2022-11-18T11:10:58.403Z,11.02
2022-11-18T11:15:03.571Z,11.17
2022-11-18T11:19:05.829Z,11.39
2022-11-18T11:23:11.554Z,11.47
2022-11-18T11:31:37.002Z,11.62
2022-11-18T11:35:48.784Z,11.79
2022-11-18T11:39:50.078Z,11.85
2022-11-18T11:43:58.052Z,11.96
2022-11-18T11:48:14.551Z,11.92
2022-11-18T11:52:20.321Z,11.81
2022-11-18T11:56:36.374Z,11.58
2022-11-18T12:00:44.513Z,11.52
2022-11-18T12:04:53.104Z,11.48
2022-11-18T12:09:15.742Z,11.44
2022-11-18T12:13:29.577Z,11.34
2022-11-18T12:17:33.998Z,11.23
2022-11-18T12:21:47.429Z,11.17
2022-11-18T12:25:48.831Z,11.14
2022-11-18T12:29:50.212Z,11.16
2022-11-18T12:33:56.545Z,11.20
2022-11-18T12:37:59.501Z,11.20
2022-11-18T12:42:34.272Z,11.00
2022-11-18T12:46:35.558Z,10.95
2022-11-18T12:50:50.912Z,11.03
2022-11-18T12:54:52.528Z,11.02
2022-11-18T12:58:55.886Z,11.01
2022-11-18T13:02:59.119Z,10.96
2022-11-18T13:07:01.535Z,10.96
2022-11-18T13:11:33.124Z,10.95
2022-11-18T13:16:00.560Z,10.94
2022-11-18T13:20:01.890Z,10.88
2022-11-18T13:24:05.112Z,10.76
2022-11-18T13:28:15.539Z,10.65
2022-11-18T13:32:27.455Z,10.56
2022-11-18T13:36:28.829Z,10.46
2022-11-18T13:40:31.664Z,10.37
2022-11-18T13:44:35.101Z,10.18
2022-11-18T13:48:39.168Z,10.07
2022-11-18T13:52:42.999Z,10.05
2022-11-18T13:56:44.397Z,10.06
2022-11-18T14:01:00.512Z,10.09
2022-11-18T14:05:03.491Z,10.13
2022-11-18T14:09:04.700Z,10.12
2022-11-18T14:13:15.954Z,10.15
2022-11-18T14:17:19.163Z,10.15
2022-11-18T14:21:28.165Z,10.13
2022-11-18T14:25:34.596Z,10.09
2022-11-18T14:29:36.027Z,10.11
2022-11-18T14:33:37.949Z,10.14
2022-11-18T14:37:39.258Z,10.14
2022-11-18T14:41:49.874Z,10.12
2022-11-18T14:45:53.496Z,10.03
2022-11-18T14:49:54.735Z,9.93
2022-11-18T14:53:56.059Z,9.91
2022-11-18T14:57:57.345Z,9.78
2022-11-18T15:01:59.911Z,9.76
2022-11-18T15:06:01.492Z,9.76
2022-11-18T15:10:03.929Z,9.72
2022-11-18T15:14:05.560Z,9.74
2022-11-18T15:18:06.889Z,9.71
2022-11-18T15:22:08.372Z,9.64
2022-11-18T15:26:30.206Z,9.61
2022-11-18T15:30:31.596Z,9.53
2022-11-18T15:34:32.920Z,9.49
2022-11-18T15:38:36.126Z,9.42
2022-11-18T15:42:47.278Z,9.38
2022-11-18T15:46:51.828Z,9.36
2022-11-18T15:50:54.320Z,9.33
2022-11-18T15:54:55.744Z,9.31
2022-11-18T15:59:07.432Z,9.24
2022-11-18T16:03:08.763Z,9.20
2022-11-18T16:07:10.181Z,9.21
2022-11-18T16:11:31.773Z,9.19
2022-11-18T16:15:48.434Z,9.14
2022-11-18T16:19:49.874Z,9.11
2022-11-18T16:23:54.059Z,9.11
2022-11-18T16:27:55.497Z,9.09
2022-11-18T16:31:56.791Z,9.07
2022-11-18T16:35:58.192Z,9.07
2022-11-18T16:39:59.769Z,9.02
2022-11-18T16:44:03.455Z,9.00
2022-11-18T16:48:05.228Z,8.95
2022-11-18T16:52:07.068Z,8.97
2022-11-18T16:56:08.364Z,8.97
2022-11-18T17:00:09.986Z,8.97
2022-11-18T17:04:11.752Z,8.90
2022-11-18T17:08:13.034Z,8.92
2022-11-18T17:12:14.334Z,8.89
2022-11-18T17:16:16.988Z,8.87
2022-11-18T17:20:18.327Z,8.82
2022-11-18T17:24:21.088Z,8.77
2022-11-18T17:28:22.714Z,8.74
2022-11-18T17:32:24.005Z,8.73
2022-11-18T17:36:26.726Z,8.70
2022-11-18T17:40:28.026Z,8.66
2022-11-18T17:44:30.572Z,8.63
2022-11-18T17:48:32.424Z,8.65
2022-11-18T17:52:33.758Z,8.66
2022-11-18T17:56:35.131Z,8.63
2022-11-18T18:00:36.854Z,8.61
2022-11-18T18:04:39.971Z,8.58
2022-11-18T18:08:43.603Z,8.58
2022-11-18T18:13:03.397Z,8.53
2022-11-18T18:17:06.274Z,8.52
2022-11-18T18:21:12.977Z,8.50
2022-11-18T18:25:15.001Z,8.49
2022-11-18T18:29:16.332Z,8.43
2022-11-18T18:33:17.695Z,8.38
2022-11-18T18:37:19.015Z,8.41
2022-11-18T18:41:21.845Z,8.41
2022-11-18T18:45:41.906Z,8.42
2022-11-18T18:49:43.229Z,8.40
2022-11-18T18:53:44.679Z,8.41
2022-11-18T18:57:48.963Z,8.43
2022-11-18T19:01:50.262Z,8.35
2022-11-18T19:06:27.239Z,8.36
2022-11-18T19:10:14.350Z,8.30
2022-11-18T19:14:21.586Z,8.29
2022-11-18T19:18:24.268Z,8.32
2022-11-18T19:22:28.901Z,8.32
2022-11-18T19:26:30.315Z,8.35
2022-11-18T19:30:34.701Z,8.37
2022-11-18T19:34:36.435Z,8.36
2022-11-18T19:38:38.339Z,8.35
2022-11-18T19:42:40.682Z,8.38
2022-11-18T19:46:42.067Z,8.34
2022-11-18T19:50:43.348Z,8.31
2022-11-18T19:54:44.823Z,8.26
2022-11-18T19:58:47.174Z,8.19
2022-11-18T20:02:48.675Z,8.13
2022-11-18T20:06:49.983Z,8.16
2022-11-18T20:10:52.262Z,8.18
2022-11-18T20:14:53.499Z,8.17
2022-11-18T20:18:56.154Z,8.18
2022-11-18T20:22:57.459Z,8.22
2022-11-18T20:26:58.794Z,8.19
2022-11-18T20:31:00.103Z,8.17
2022-11-18T20:35:01.917Z,8.15
2022-11-18T20:39:05.085Z,8.11
2022-11-18T20:43:12.424Z,8.11
2022-11-18T20:47:13.804Z,8.14
2022-11-18T20:51:16.662Z,8.15
2022-11-18T20:55:17.958Z,8.14
2022-11-18T20:59:19.684Z,8.15
2022-11-18T21:03:22.451Z,8.12
2022-11-18T21:07:23.843Z,8.07
2022-11-18T21:11:25.846Z,8.03
2022-11-18T21:15:27.170Z,8.02
2022-11-18T21:19:29.075Z,8.04
2022-11-18T21:23:30.532Z,8.08
2022-11-18T21:27:31.780Z,8.09
2022-11-18T21:31:33.340Z,8.11
2022-11-18T21:35:34.821Z,8.13
2022-11-18T21:39:36.305Z,8.16
2022-11-18T21:44:06.827Z,8.20
2022-11-18T21:48:00.315Z,8.22
2022-11-18T21:52:01.586Z,8.19
2022-11-18T21:56:03.788Z,8.23
2022-11-18T22:00:07.697Z,8.24
2022-11-18T22:04:28.986Z,8.26
2022-11-18T22:08:30.918Z,8.25
2022-11-18T22:12:32.239Z,8.26
2022-11-18T22:16:33.521Z,8.28
2022-11-18T22:20:34.859Z,8.30
2022-11-18T22:24:36.155Z,8.32
2022-11-18T22:28:38.072Z,8.31
2022-11-18T22:32:39.293Z,8.32
2022-11-18T22:36:40.573Z,8.33
2022-11-18T22:40:41.917Z,8.36
2022-11-18T22:44:43.478Z,8.36
2022-11-18T22:48:44.730Z,8.31
2022-11-18T22:52:46.515Z,8.31
2022-11-18T22:56:48.141Z,8.33
2022-11-18T23:00:49.579Z,8.32
2022-11-18T23:04:50.868Z,8.30
2022-11-18T23:08:52.178Z,8.33
2022-11-18T23:13:12.309Z,8.29
2022-11-18T23:17:13.672Z,8.32
2022-11-18T23:21:15.049Z,8.33
2022-11-18T23:25:16.458Z,8.33
2022-11-18T23:29:18.122Z,8.35
2022-11-18T23:33:19.648Z,8.28
2022-11-18T23:37:20.974Z,8.23
2022-11-18T23:41:22.592Z,8.19
2022-11-18T23:45:23.918Z,8.21
2022-11-18T23:49:25.607Z,8.22
2022-11-18T23:53:27.783Z,8.25
2022-11-18T23:57:29.531Z,8.26
